Terminal Aerodrome Forecast
Issued by NWS Upton, NY

Home | Current Version | Previous Version | Text Only | Print | Product List | Glossary On
Versions: 1 2 3 4 5 6 7 8 9 10 11 12 13 14 15 16 17 18 19 20 21 22 23 24 25 26 27 28 29 30 31 32
358
FTUS41 KOKX 221328 AAA
TAFEWR
TAF AMD
KEWR 221328Z 2213/2318 29005KT 6SM -RA BR SCT015 BKN030 OVC050
      TEMPO 2214/2215 3SM -RA BR BKN015
     FM221500 30007KT 6SM -RA SCT010 BKN030 OVC050
     FM221600 33010KT P6SM SCT025 BKN070
     FM221800 33017G25KT P6SM FEW070 SCT250
     FM230300 32012KT P6SM SKC
     FM230700 32008KT P6SM SKC=

USA.gov is the U.S. government's official web portal to all federal, state and local government web resources and services.